This demonstration page uses our WeatherBlox Daily Observations layout. Learn more.

Left ArrowRight Arrow

Hourly Observations for November 26, 2018

Temp ( °F °C ) Dew Point ( °F °C ) Humidity (%) Winds ( mph kmh ) Pressure ( in mb ) Visibility ( mi km ) Precip ( " mm )
12:57 am 00:57 Cloudy N/A N/A N/A NNW 8 13 N/A 10 16 0.00 0.00
1:40 am 01:40 Cloudy N/A N/A N/A NW 7 11 N/A 10 16 0.00 0.00
1:57 am 01:57 Cloudy N/A N/A N/A NNW 7 11 N/A 10 16 0.00 0.00
2:57 am 02:57 Mostly Clear N/A N/A N/A NW 3 6 N/A 10 16 0.00 0.00
3:13 am 03:13 Mostly Cloudy N/A N/A N/A WNW 6 9 N/A 10 16 0.00 0.00
3:57 am 03:57 Cloudy N/A N/A N/A NW 5 7 N/A 10 16 0.00 0.00
4:57 am 04:57 Cloudy N/A N/A N/A Calm N/A 10 16 0.00 0.00
5:12 am 05:12 Cloudy N/A N/A N/A Calm N/A 10 16 0.00 0.00
5:33 am 05:33 Cloudy N/A N/A N/A Calm N/A 10 16 0.00 0.00
5:57 am 05:57 Cloudy N/A N/A N/A Calm N/A 10 16 0.00 0.00
6:57 am 06:57 Cloudy N/A N/A N/A WNW 3 6 N/A 10 16 0.00 0.00
7:57 am 07:57 Cloudy 26 -3.3 24 -4.4 92 92 W 6 9 30.33 1027 10 16 0.00 0.00
8:57 am 08:57 Cloudy with Light Snow 26 -3.3 23 -5 88 88 W 8 13 30.33 1027 9 14 0.00 0.03
9:57 am 09:57 Cloudy with Light Snow 28 -2.2 24 -4.4 85 85 WNW 12 19 30.36 1028 9 14 0.00 0.03
10:57 am 10:57 Cloudy 27 -2.8 24 -4.4 89 89 WNW 12 19 30.36 1028 10 16 0.00 0.03
11:57 am 11:57 Cloudy 32 0 27 -2.8 82 82 NNW 13 20 30.30 1026 10 16 0.00 0.03
12:32 pm 12:32 Cloudy 32 0 27 -3 80 80 N 14 22 30.30 1026 10 16 0.00 0.00
12:57 pm 12:57 Cloudy 32 0 27 -2.8 82 82 NNW 7 11 30.30 1026 10 16 0.00 0.00
1:24 pm 13:24 Cloudy 34 1 27 -3 75 75 N 12 19 30.30 1026 10 16 0.00 0.03
1:45 pm 13:45 Cloudy 32 0 27 -3 80 80 NNE 10 17 30.30 1026 10 16 0.00 0.00
1:57 pm 13:57 Cloudy 32 0 27 -2.8 82 82 N 13 20 30.30 1026 10 16 0.00 0.03
2:57 pm 14:57 Cloudy 32 0 25 -3.9 75 75 NNW 14 22 30.30 1026 10 16 0.00 0.00
3:57 pm 15:57 Cloudy 31 -0.6 25 -3.9 79 79 N 10 17 30.33 1027 10 16 0.00 0.00
4:57 pm 16:57 Cloudy 30 -1.1 24 -4.4 79 79 N 12 19 30.30 1026 10 16 0.00 0.00
6:57 pm 18:57 Cloudy 29 -1.7 24 -4.4 82 82 N 5 7 30.30 1026 10 16 0.00 0.00
7:57 pm 19:57 Cloudy 28 -2.2 25 -3.9 88 88 Calm 30.24 1024 10 16 0.00 0.00
8:57 pm 20:57 Cloudy 28 -2.2 24 -4.4 85 85 Calm 30.22 1024 10 16 0.00 0.00
9:57 pm 21:57 Cloudy 28 -2.2 25 -3.9 88 88 ENE 3 6 30.22 1024 10 16 0.00 0.00
10:57 pm 22:57 Cloudy 27 -2.8 24 -4.4 89 89 ENE 5 7 30.22 1023 10 16 0.00 0.00
11:57 pm 23:57 Cloudy 26 -3.3 23 -5 88 88 ENE 6 9 30.21 1023 10 16 0.00 0.00

Powered by AerisWeather